createdAt,value
2018-01-30T00:00:12.814Z,59.00
2018-01-30T00:02:40.316Z,59.00
2018-01-30T00:05:09.064Z,58.90
2018-01-30T00:07:36.659Z,58.90
2018-01-30T00:10:05.117Z,59.10
2018-01-30T00:12:32.651Z,59.10
2018-01-30T00:15:00.184Z,59.10
2018-01-30T00:17:27.752Z,59.10
2018-01-30T00:19:55.261Z,59.30
2018-01-30T00:22:22.810Z,59.20
2018-01-30T00:24:50.357Z,58.80
2018-01-30T00:27:17.925Z,58.70
2018-01-30T00:29:45.451Z,58.50
2018-01-30T00:32:12.975Z,58.40
2018-01-30T00:34:42.613Z,58.40
2018-01-30T00:37:10.163Z,58.40
2018-01-30T00:39:37.682Z,58.30
2018-01-30T00:42:05.215Z,58.20
2018-01-30T00:44:32.772Z,58.10
2018-01-30T00:47:00.286Z,58.10
2018-01-30T00:49:29.399Z,58.10
2018-01-30T00:51:56.961Z,58.10
2018-01-30T00:54:24.478Z,58.40
2018-01-30T00:56:52.017Z,58.60
2018-01-30T00:59:19.566Z,58.40
2018-01-30T01:01:47.222Z,58.40
2018-01-30T01:04:14.982Z,58.50
2018-01-30T01:06:42.501Z,58.30
2018-01-30T01:09:10.812Z,58.50
2018-01-30T01:11:38.395Z,58.40
2018-01-30T01:14:05.970Z,57.90
2018-01-30T01:16:33.518Z,58.20
2018-01-30T01:19:01.081Z,58.30
2018-01-30T01:21:28.678Z,58.30
2018-01-30T01:23:56.988Z,57.90
2018-01-30T01:26:24.500Z,57.90
2018-01-30T01:28:52.054Z,57.50
2018-01-30T01:31:19.596Z,57.60
2018-01-30T01:33:47.145Z,57.70
2018-01-30T01:36:14.679Z,57.60
2018-01-30T01:38:42.818Z,57.50
2018-01-30T01:41:11.145Z,57.40
2018-01-30T01:43:38.672Z,57.20
2018-01-30T01:46:06.246Z,57.30
2018-01-30T01:48:33.778Z,57.30
2018-01-30T01:51:01.345Z,57.20
2018-01-30T01:53:29.695Z,57.00
2018-01-30T01:55:57.982Z,57.00
2018-01-30T01:58:26.296Z,56.80
2018-01-30T02:00:53.867Z,56.70
2018-01-30T02:03:21.677Z,56.80
2018-01-30T02:05:49.288Z,56.50
2018-01-30T02:08:16.880Z,56.80
2018-01-30T02:10:44.421Z,56.90
2018-01-30T02:13:11.949Z,57.20
2018-01-30T02:15:39.507Z,57.40
2018-01-30T02:18:07.807Z,57.60
2018-01-30T02:20:36.247Z,57.60
2018-01-30T02:23:03.926Z,57.80
2018-01-30T02:25:32.263Z,57.90
2018-01-30T02:27:59.893Z,57.90
2018-01-30T02:30:28.145Z,58.00
2018-01-30T02:32:56.440Z,58.40
2018-01-30T02:35:24.597Z,58.40
2018-01-30T02:37:52.408Z,58.60
2018-01-30T02:40:19.950Z,58.80
2018-01-30T02:42:47.463Z,58.90
2018-01-30T02:45:16.008Z,58.90
2018-01-30T02:47:44.180Z,59.10
2018-01-30T02:50:11.863Z,59.30
2018-01-30T02:52:39.709Z,59.40
2018-01-30T02:55:09.219Z,59.70
2018-01-30T02:57:36.771Z,59.60
2018-01-30T03:00:04.462Z,60.00
2018-01-30T03:02:32.010Z,59.90
2018-01-30T03:04:59.732Z,60.00
2018-01-30T03:07:27.286Z,60.10
2018-01-30T03:09:54.848Z,60.00
2018-01-30T03:12:22.365Z,59.90
2018-01-30T03:14:49.955Z,60.00
2018-01-30T03:17:17.492Z,60.20
2018-01-30T03:19:45.058Z,60.20
2018-01-30T03:22:13.236Z,60.30
2018-01-30T03:24:41.529Z,60.20
2018-01-30T03:27:09.038Z,60.10
2018-01-30T03:29:37.442Z,60.30
2018-01-30T03:32:04.963Z,60.30
2018-01-30T03:34:32.507Z,60.30
2018-01-30T03:37:00.092Z,60.50
2018-01-30T03:39:27.638Z,60.20
2018-01-30T03:41:55.169Z,60.30
2018-01-30T03:44:22.763Z,60.40
2018-01-30T03:46:50.291Z,60.40
2018-01-30T03:49:17.825Z,60.40
2018-01-30T03:51:45.390Z,60.30
2018-01-30T03:54:13.676Z,60.30
2018-01-30T03:56:41.224Z,60.30
2018-01-30T03:59:09.535Z,60.50
2018-01-30T04:01:37.118Z,60.40
2018-01-30T04:04:04.717Z,60.50
2018-01-30T04:06:33.015Z,60.90
2018-01-30T04:09:00.607Z,60.80
2018-01-30T04:11:28.130Z,61.00
2018-01-30T04:13:58.628Z,61.30
2018-01-30T04:16:26.213Z,61.20
2018-01-30T04:18:54.402Z,61.40
2018-01-30T04:21:21.980Z,61.50
2018-01-30T04:23:49.531Z,61.30
2018-01-30T04:26:17.062Z,61.30
2018-01-30T04:28:45.455Z,61.20
2018-01-30T04:31:13.001Z,61.50
2018-01-30T04:33:40.526Z,61.50
2018-01-30T04:36:08.090Z,61.50
2018-01-30T04:38:35.684Z,61.50
2018-01-30T04:41:04.062Z,61.70
2018-01-30T04:43:31.627Z,61.00
2018-01-30T04:48:33.335Z,61.80
2018-01-30T04:51:00.874Z,62.10
2018-01-30T04:53:28.394Z,62.20
2018-01-30T04:55:56.707Z,62.50
2018-01-30T04:58:24.281Z,62.50
2018-01-30T05:00:52.867Z,62.20
2018-01-30T05:03:20.445Z,62.30
2018-01-30T05:05:47.988Z,62.30
2018-01-30T05:08:16.248Z,62.20
2018-01-30T05:10:43.822Z,62.10
2018-01-30T05:13:12.292Z,62.30
2018-01-30T05:15:39.849Z,62.20
2018-01-30T05:18:07.437Z,62.30
2018-01-30T05:20:34.994Z,62.40
2018-01-30T05:23:02.570Z,62.00
2018-01-30T05:25:30.149Z,62.60
2018-01-30T05:27:58.581Z,61.90
2018-01-30T05:30:26.097Z,61.60
2018-01-30T05:32:54.509Z,61.60
2018-01-30T05:35:22.025Z,62.30
2018-01-30T05:37:49.530Z,61.60
2018-01-30T05:40:17.101Z,61.50
2018-01-30T05:42:44.610Z,61.30
2018-01-30T05:45:12.147Z,60.90
2018-01-30T05:47:39.698Z,60.80
2018-01-30T05:50:07.334Z,60.80
2018-01-30T05:52:34.853Z,61.00
2018-01-30T05:55:02.437Z,60.30
2018-01-30T05:57:30.758Z,59.60
2018-01-30T05:59:58.293Z,59.60
2018-01-30T06:02:25.853Z,59.70
2018-01-30T06:04:53.433Z,59.40
2018-01-30T06:07:20.973Z,59.50
2018-01-30T06:09:48.500Z,59.50
2018-01-30T06:12:16.061Z,59.90
2018-01-30T06:14:43.612Z,60.80
2018-01-30T06:17:11.147Z,62.20
2018-01-30T06:19:38.758Z,64.40
2018-01-30T06:22:06.302Z,63.80
2018-01-30T06:24:34.595Z,64.20
2018-01-30T06:27:02.146Z,64.20
2018-01-30T06:29:29.695Z,64.10
2018-01-30T06:31:57.989Z,63.30
2018-01-30T06:34:25.551Z,63.30
2018-01-30T06:36:53.109Z,62.80
2018-01-30T06:39:21.446Z,63.10
2018-01-30T06:41:48.991Z,63.10
2018-01-30T06:44:16.544Z,62.80
2018-01-30T06:46:44.274Z,62.70
2018-01-30T06:49:11.822Z,61.30
2018-01-30T06:51:39.381Z,60.20
2018-01-30T06:54:06.944Z,60.00
2018-01-30T06:56:34.466Z,59.20
2018-01-30T06:59:01.989Z,59.40
2018-01-30T07:01:29.620Z,59.10
2018-01-30T07:03:59.232Z,58.70
2018-01-30T07:06:27.440Z,58.10
2018-01-30T07:08:55.436Z,57.60
2018-01-30T07:11:22.984Z,57.70
2018-01-30T07:13:50.589Z,57.90
2018-01-30T07:16:18.191Z,57.80
2018-01-30T07:18:45.716Z,57.70
2018-01-30T07:21:14.051Z,57.20
2018-01-30T07:23:41.640Z,57.20
2018-01-30T07:26:09.159Z,57.10
2018-01-30T07:28:37.059Z,56.90
2018-01-30T07:31:05.358Z,58.00
2018-01-30T07:33:32.919Z,57.40
2018-01-30T07:36:01.322Z,57.20
2018-01-30T07:38:28.860Z,57.70
2018-01-30T07:40:56.433Z,57.40
2018-01-30T07:43:23.967Z,56.80
2018-01-30T07:45:51.524Z,56.70
2018-01-30T07:48:19.081Z,56.60
2018-01-30T07:50:46.641Z,56.30
2018-01-30T07:53:15.439Z,56.60
2018-01-30T07:55:43.004Z,56.60
2018-01-30T07:58:11.322Z,56.30
2018-01-30T08:00:38.882Z,56.30
2018-01-30T08:03:06.443Z,56.50
2018-01-30T08:05:33.964Z,55.90
2018-01-30T08:08:01.562Z,55.30
2018-01-30T08:10:29.189Z,55.60
2018-01-30T08:12:56.897Z,54.50
2018-01-30T08:15:24.457Z,54.80
2018-01-30T08:17:52.208Z,55.10
2018-01-30T08:20:19.883Z,54.80
2018-01-30T08:22:47.432Z,54.40
2018-01-30T08:25:15.025Z,53.00
2018-01-30T08:27:43.369Z,52.10
2018-01-30T08:30:10.935Z,52.10
2018-01-30T08:32:40.426Z,52.20
2018-01-30T08:35:07.974Z,52.20
2018-01-30T08:37:35.561Z,52.90
2018-01-30T08:40:03.214Z,52.30
2018-01-30T08:42:30.807Z,51.80
2018-01-30T08:44:58.769Z,52.70
2018-01-30T08:47:26.368Z,51.60
2018-01-30T08:49:54.217Z,50.70
2018-01-30T08:52:22.587Z,51.50
2018-01-30T08:54:50.139Z,51.50
2018-01-30T08:57:17.769Z,50.60
2018-01-30T08:59:45.316Z,50.70
2018-01-30T09:02:16.014Z,50.40
2018-01-30T09:04:43.614Z,49.00
2018-01-30T09:07:11.225Z,49.00
2018-01-30T09:09:38.786Z,48.20
2018-01-30T09:12:06.354Z,47.70
2018-01-30T09:14:34.004Z,47.10
2018-01-30T09:17:02.409Z,47.00
2018-01-30T09:19:30.765Z,47.50
2018-01-30T09:22:00.920Z,47.30
2018-01-30T09:24:28.456Z,47.60
2018-01-30T09:26:56.946Z,45.40
2018-01-30T09:29:24.538Z,46.20
2018-01-30T09:31:52.189Z,44.80
2018-01-30T09:34:20.241Z,45.20
2018-01-30T09:36:47.897Z,44.50
2018-01-30T09:39:17.523Z,44.10
2018-01-30T09:41:45.936Z,44.60
2018-01-30T09:44:14.568Z,44.60
2018-01-30T09:46:42.998Z,45.40
2018-01-30T09:49:11.626Z,45.40
2018-01-30T09:51:39.208Z,45.80
2018-01-30T09:54:07.010Z,45.90
2018-01-30T09:56:34.597Z,44.80
2018-01-30T09:59:02.158Z,44.50
2018-01-30T10:01:30.377Z,44.70
2018-01-30T10:03:57.960Z,45.50
2018-01-30T10:06:25.586Z,45.70
2018-01-30T10:08:54.220Z,45.80
2018-01-30T10:11:21.792Z,45.80
2018-01-30T10:13:49.386Z,45.70
2018-01-30T10:16:17.810Z,46.20
2018-01-30T10:18:45.386Z,46.10
2018-01-30T10:21:13.813Z,46.10
2018-01-30T10:23:42.236Z,46.20
2018-01-30T10:26:11.335Z,46.30
2018-01-30T10:28:38.934Z,46.30
2018-01-30T10:31:07.690Z,45.10
2018-01-30T10:33:35.539Z,45.10
2018-01-30T10:36:03.725Z,45.30
2018-01-30T10:38:32.410Z,45.00
2018-01-30T10:41:00.060Z,45.00
2018-01-30T10:43:27.778Z,45.20
2018-01-30T10:45:56.568Z,45.20
2018-01-30T10:48:24.188Z,45.00
2018-01-30T10:50:52.119Z,45.70
2018-01-30T10:53:20.618Z,45.40
2018-01-30T10:55:48.438Z,45.70
2018-01-30T10:58:17.133Z,46.20
2018-01-30T11:00:45.770Z,46.10
2018-01-30T11:03:13.438Z,46.10
2018-01-30T11:05:41.393Z,46.30
2018-01-30T11:08:10.022Z,46.40
2018-01-30T11:10:38.881Z,46.70
2018-01-30T11:13:07.708Z,46.70
2018-01-30T11:15:36.078Z,46.40
2018-01-30T11:18:04.045Z,46.40
2018-01-30T11:20:31.734Z,46.40
2018-01-30T11:23:00.292Z,46.50
2018-01-30T11:25:29.652Z,45.30
2018-01-30T11:27:57.365Z,45.30
2018-01-30T11:30:25.081Z,45.60
2018-01-30T11:32:52.712Z,45.70
2018-01-30T11:35:20.489Z,45.90
2018-01-30T11:37:48.125Z,46.00
2018-01-30T11:40:16.557Z,46.00
2018-01-30T11:42:44.160Z,45.90
2018-01-30T11:45:11.792Z,45.90
2018-01-30T11:47:39.536Z,46.10
2018-01-30T11:50:07.567Z,46.10
2018-01-30T11:52:35.953Z,46.40
2018-01-30T11:55:03.715Z,46.40
2018-01-30T11:57:31.413Z,46.30
2018-01-30T11:59:59.007Z,46.30
2018-01-30T12:02:27.011Z,46.40
2018-01-30T12:04:55.470Z,46.50
2018-01-30T12:07:23.279Z,46.50
2018-01-30T12:09:51.638Z,46.70
2018-01-30T12:12:21.145Z,46.90
2018-01-30T12:14:50.294Z,47.10
2018-01-30T12:17:17.907Z,47.10
2018-01-30T12:19:46.429Z,47.10
2018-01-30T12:22:14.815Z,47.60
2018-01-30T12:24:42.435Z,47.90
2018-01-30T12:27:10.255Z,47.80
2018-01-30T12:29:37.849Z,47.80
2018-01-30T12:32:05.447Z,48.10
2018-01-30T12:34:33.027Z,48.10
2018-01-30T12:37:00.907Z,48.90
2018-01-30T12:39:28.521Z,49.00
2018-01-30T12:41:56.146Z,49.10
2018-01-30T12:44:23.722Z,49.20
2018-01-30T12:46:51.310Z,49.20
2018-01-30T12:49:18.930Z,49.20
2018-01-30T12:51:47.275Z,49.00
2018-01-30T12:54:14.896Z,48.90
2018-01-30T12:56:42.447Z,49.00
2018-01-30T12:59:10.012Z,49.00
2018-01-30T13:01:37.941Z,48.50
2018-01-30T13:04:05.404Z,48.30
2018-01-30T13:06:33.022Z,48.50
2018-01-30T13:09:00.691Z,48.30
2018-01-30T13:11:28.263Z,48.60
2018-01-30T13:13:55.928Z,48.80
2018-01-30T13:16:24.760Z,49.40
2018-01-30T13:18:52.329Z,50.00
2018-01-30T13:21:19.908Z,51.10
2018-01-30T13:23:47.482Z,52.40
2018-01-30T13:26:15.135Z,53.40
2018-01-30T13:28:42.694Z,53.90
2018-01-30T13:31:10.849Z,54.70
2018-01-30T13:33:38.590Z,54.90
2018-01-30T13:36:07.215Z,55.40
2018-01-30T13:38:35.136Z,55.40
2018-01-30T13:41:03.522Z,56.30
2018-01-30T13:43:31.864Z,56.80
2018-01-30T13:46:00.498Z,56.80
2018-01-30T13:48:28.136Z,56.80
2018-01-30T13:50:55.715Z,56.80
2018-01-30T13:53:24.040Z,56.90
2018-01-30T13:55:51.621Z,56.90
2018-01-30T13:58:19.226Z,56.60
2018-01-30T14:00:46.819Z,55.90
2018-01-30T14:03:14.517Z,56.30
2018-01-30T14:05:42.087Z,56.30
2018-01-30T14:08:09.681Z,56.10
2018-01-30T14:10:37.238Z,56.10
2018-01-30T14:13:04.831Z,56.00
2018-01-30T14:15:32.439Z,55.70
2018-01-30T14:18:00.074Z,55.40
2018-01-30T14:20:27.642Z,55.70
2018-01-30T14:22:55.216Z,55.60
2018-01-30T14:25:22.878Z,55.10
2018-01-30T14:27:51.826Z,55.00
2018-01-30T14:30:19.729Z,55.00
2018-01-30T14:32:47.412Z,55.00
2018-01-30T14:35:16.893Z,54.80
2018-01-30T14:37:45.472Z,54.70
2018-01-30T14:40:13.024Z,54.80
2018-01-30T14:42:40.842Z,54.70
2018-01-30T14:45:09.182Z,54.80
2018-01-30T14:47:37.035Z,55.00
2018-01-30T14:50:04.855Z,54.90
2018-01-30T14:52:32.488Z,54.70
2018-01-30T14:55:00.111Z,55.10
2018-01-30T14:57:27.877Z,55.30
2018-01-30T14:59:55.616Z,55.50
2018-01-30T15:02:23.253Z,55.80
2018-01-30T15:04:51.726Z,56.30
2018-01-30T15:07:20.090Z,56.10
2018-01-30T15:09:47.753Z,56.10
2018-01-30T15:12:15.439Z,56.10
2018-01-30T15:14:43.906Z,57.20
2018-01-30T15:17:11.486Z,57.20
2018-01-30T15:19:39.997Z,57.00
2018-01-30T15:22:07.895Z,56.90
2018-01-30T15:24:36.089Z,57.10
2018-01-30T15:27:03.816Z,56.80
2018-01-30T15:29:31.393Z,56.90
2018-01-30T15:31:59.132Z,56.60
2018-01-30T15:34:27.560Z,56.50
2018-01-30T15:36:55.882Z,56.30
2018-01-30T15:39:23.571Z,56.30
2018-01-30T15:41:51.154Z,56.40
2018-01-30T15:44:18.824Z,56.30
2018-01-30T15:46:46.579Z,56.20
2018-01-30T15:49:14.449Z,55.90
2018-01-30T15:51:42.114Z,56.00
2018-01-30T15:54:09.731Z,55.90
2018-01-30T15:56:37.386Z,56.20
2018-01-30T15:59:05.068Z,56.00
2018-01-30T16:01:32.607Z,55.90
2018-01-30T16:04:00.358Z,54.90
2018-01-30T16:06:29.123Z,54.80
2018-01-30T16:08:57.776Z,54.50
2018-01-30T16:11:25.394Z,54.50
2018-01-30T16:13:53.791Z,54.40
2018-01-30T16:16:21.533Z,54.20
2018-01-30T16:18:49.176Z,54.00
2018-01-30T16:21:16.820Z,53.60
2018-01-30T16:23:44.471Z,53.70
2018-01-30T16:26:12.084Z,53.70
2018-01-30T16:28:39.809Z,53.80
2018-01-30T16:31:07.381Z,53.60
2018-01-30T16:33:35.246Z,53.80
2018-01-30T16:36:03.785Z,54.60
2018-01-30T16:38:31.451Z,54.50
2018-01-30T16:40:59.084Z,54.30
2018-01-30T16:43:26.691Z,54.20
2018-01-30T16:45:54.693Z,54.50
2018-01-30T16:48:23.076Z,55.20
2018-01-30T16:50:50.850Z,54.60
2018-01-30T16:53:18.928Z,54.70
2018-01-30T16:55:46.812Z,54.90
2018-01-30T16:58:14.554Z,54.70
2018-01-30T17:00:42.541Z,54.90
2018-01-30T17:03:10.108Z,55.30
2018-01-30T17:05:37.687Z,55.20
2018-01-30T17:08:05.492Z,55.20
2018-01-30T17:10:34.042Z,55.20
2018-01-30T17:13:01.700Z,55.20
2018-01-30T17:15:29.426Z,56.70
2018-01-30T17:17:56.992Z,56.70
2018-01-30T17:20:24.752Z,56.80
2018-01-30T17:22:52.429Z,56.90
2018-01-30T17:25:20.077Z,57.10
2018-01-30T17:27:47.667Z,57.20
2018-01-30T17:30:15.353Z,57.40
2018-01-30T17:32:43.027Z,57.50
2018-01-30T17:35:10.851Z,57.60
2018-01-30T17:37:38.703Z,57.60
2018-01-30T17:40:07.302Z,57.70
2018-01-30T17:42:36.027Z,57.60
2018-01-30T17:45:04.732Z,57.70
2018-01-30T17:47:32.381Z,57.90
2018-01-30T17:50:01.229Z,58.20
2018-01-30T17:52:28.891Z,58.10
2018-01-30T17:54:56.597Z,58.40
2018-01-30T17:57:24.642Z,58.80
2018-01-30T17:59:52.323Z,58.80
2018-01-30T18:02:19.875Z,58.80
2018-01-30T18:04:47.563Z,58.70
2018-01-30T18:07:16.792Z,58.80
2018-01-30T18:09:44.353Z,58.80
2018-01-30T18:12:12.102Z,58.70
2018-01-30T18:14:40.627Z,58.60
2018-01-30T18:17:08.316Z,58.50
2018-01-30T18:19:36.841Z,58.10
2018-01-30T18:22:05.191Z,58.10
2018-01-30T18:24:33.581Z,58.00
2018-01-30T18:27:01.180Z,58.10
2018-01-30T18:29:29.525Z,58.50
2018-01-30T18:31:57.187Z,58.40
2018-01-30T18:34:25.637Z,58.70
2018-01-30T18:36:53.248Z,58.80
2018-01-30T18:39:20.952Z,58.80
2018-01-30T18:41:48.522Z,59.20
2018-01-30T18:44:16.957Z,59.50
2018-01-30T18:46:44.682Z,59.50
2018-01-30T18:49:13.170Z,59.80
2018-01-30T18:51:41.540Z,59.90
2018-01-30T18:54:09.123Z,59.80
2018-01-30T18:56:36.667Z,59.80
2018-01-30T18:59:05.487Z,59.50
2018-01-30T19:01:33.301Z,59.50
2018-01-30T19:04:00.905Z,59.60
2018-01-30T19:06:28.456Z,59.70
2018-01-30T19:08:56.003Z,59.80
2018-01-30T19:11:24.356Z,60.10
2018-01-30T19:13:51.940Z,60.10
2018-01-30T19:16:20.504Z,60.10
2018-01-30T19:18:48.111Z,60.10
2018-01-30T19:21:16.409Z,60.40
2018-01-30T19:23:44.791Z,60.10
2018-01-30T19:26:12.922Z,60.80
2018-01-30T19:28:41.336Z,59.90
2018-01-30T19:31:09.401Z,60.60
2018-01-30T19:33:37.038Z,59.90
2018-01-30T19:36:04.844Z,60.10
2018-01-30T19:38:32.409Z,60.10
2018-01-30T19:41:00.120Z,60.00
2018-01-30T19:43:28.486Z,60.00
2018-01-30T19:45:56.833Z,60.40
2018-01-30T19:48:24.427Z,60.30
2018-01-30T19:50:52.785Z,59.90
2018-01-30T19:53:20.542Z,59.90
2018-01-30T19:55:48.154Z,59.80
2018-01-30T19:58:16.034Z,60.00
2018-01-30T20:00:43.640Z,60.10
2018-01-30T20:03:11.339Z,60.00
2018-01-30T20:05:39.905Z,60.20
2018-01-30T20:08:07.703Z,60.10
2018-01-30T20:10:35.269Z,60.00
2018-01-30T20:13:02.929Z,60.20
2018-01-30T20:15:30.496Z,60.50
2018-01-30T20:17:58.866Z,60.60
2018-01-30T20:20:26.720Z,60.70
2018-01-30T20:22:54.398Z,60.80
2018-01-30T20:25:22.817Z,60.90
2018-01-30T20:27:50.382Z,60.70
2018-01-30T20:30:18.094Z,60.50
2018-01-30T20:32:46.050Z,60.80
2018-01-30T20:35:14.860Z,61.00
2018-01-30T20:37:43.945Z,60.90
2018-01-30T20:40:11.816Z,60.80
2018-01-30T20:42:39.456Z,60.60
2018-01-30T20:45:07.406Z,60.60
2018-01-30T20:47:35.017Z,60.80
2018-01-30T20:50:03.312Z,60.80
2018-01-30T20:52:30.959Z,61.00
2018-01-30T20:54:58.618Z,61.00
2018-01-30T20:57:26.202Z,60.70
2018-01-30T20:59:53.895Z,60.80
2018-01-30T21:02:21.498Z,60.70
2018-01-30T21:04:49.141Z,60.80
2018-01-30T21:07:16.945Z,60.90
2018-01-30T21:09:44.637Z,60.80
2018-01-30T21:12:12.493Z,60.60
2018-01-30T21:14:40.866Z,61.50
2018-01-30T21:17:09.729Z,61.80
2018-01-30T21:19:37.337Z,61.60
2018-01-30T21:22:05.064Z,61.50
2018-01-30T21:24:32.931Z,61.30
2018-01-30T21:27:00.672Z,61.50
2018-01-30T21:29:28.628Z,61.50
2018-01-30T21:31:57.174Z,61.50
2018-01-30T21:34:25.030Z,61.50
2018-01-30T21:36:52.672Z,61.60
2018-01-30T21:39:20.295Z,61.60
2018-01-30T21:41:47.995Z,61.40
2018-01-30T21:44:15.961Z,61.20
2018-01-30T21:46:43.658Z,61.30
2018-01-30T21:49:12.209Z,61.40
2018-01-30T21:51:40.062Z,61.70
2018-01-30T21:54:08.195Z,62.10
2018-01-30T21:56:37.754Z,62.20
2018-01-30T21:59:05.305Z,62.20
2018-01-30T22:01:34.086Z,62.30
2018-01-30T22:04:02.884Z,62.20
2018-01-30T22:06:30.526Z,62.10
2018-01-30T22:08:58.153Z,62.10
2018-01-30T22:11:26.796Z,62.20
2018-01-30T22:13:54.746Z,62.30
2018-01-30T22:16:22.744Z,62.80
2018-01-30T22:18:50.504Z,62.90
2018-01-30T22:21:18.176Z,63.10
2018-01-30T22:23:45.900Z,63.20
2018-01-30T22:26:15.388Z,63.60
2018-01-30T22:28:43.731Z,63.50
2018-01-30T22:31:11.296Z,62.90
2018-01-30T22:33:38.856Z,63.30
2018-01-30T22:36:06.552Z,63.40
2018-01-30T22:38:34.976Z,63.00
2018-01-30T22:41:02.555Z,63.00
2018-01-30T22:43:30.229Z,62.50
2018-01-30T22:45:57.854Z,62.30
